sensor_id;sensor_type;location;lat;lon;timestamp;P1;durP1;ratioP1;P2;durP2;ratioP2
56297;SDS011;42208;6.376;-10.782;2022-09-12T00:01:15;20.75;;;10.80;;
56297;SDS011;42208;6.376;-10.782;2022-09-12T00:03:45;28.70;;;10.75;;
56297;SDS011;42208;6.376;-10.782;2022-09-12T00:06:15;32.00;;;11.23;;
56297;SDS011;42208;6.376;-10.782;2022-09-12T00:08:49;20.38;;;10.20;;
56297;SDS011;42208;6.376;-10.782;2022-09-12T00:11:20;23.65;;;11.00;;
56297;SDS011;42208;6.376;-10.782;2022-09-12T00:13:49;25.35;;;11.35;;
56297;SDS011;42208;6.376;-10.782;2022-09-12T00:19:42;30.05;;;10.35;;
56297;SDS011;42208;6.376;-10.782;2022-09-12T00:22:10;24.23;;;10.95;;
56297;SDS011;42208;6.376;-10.782;2022-09-12T00:24:38;24.10;;;11.07;;
56297;SDS011;42208;6.376;-10.782;2022-09-12T00:27:06;20.75;;;10.23;;
56297;SDS011;42208;6.376;-10.782;2022-09-12T00:29:34;24.70;;;10.52;;
56297;SDS011;42208;6.376;-10.782;2022-09-12T00:32:03;26.85;;;10.50;;
56297;SDS011;42208;6.376;-10.782;2022-09-12T00:34:31;27.50;;;10.70;;
56297;SDS011;42208;6.376;-10.782;2022-09-12T00:36:59;27.08;;;11.32;;
56297;SDS011;42208;6.376;-10.782;2022-09-12T00:39:27;24.77;;;11.20;;
56297;SDS011;42208;6.376;-10.782;2022-09-12T00:41:56;28.05;;;11.10;;
56297;SDS011;42208;6.376;-10.782;2022-09-12T00:47:35;25.55;;;10.70;;
56297;SDS011;42208;6.376;-10.782;2022-09-12T00:50:03;25.17;;;11.60;;
56297;SDS011;42208;6.376;-10.782;2022-09-12T00:52:45;32.10;;;14.57;;
56297;SDS011;42208;6.376;-10.782;2022-09-12T00:58:01;29.02;;;15.52;;
56297;SDS011;42208;6.376;-10.782;2022-09-12T01:00:34;23.13;;;11.80;;
56297;SDS011;42208;6.376;-10.782;2022-09-12T01:03:09;26.92;;;10.90;;
56297;SDS011;42208;6.376;-10.782;2022-09-12T01:05:40;26.92;;;11.38;;
56297;SDS011;42208;6.376;-10.782;2022-09-12T01:08:10;28.60;;;11.18;;
56297;SDS011;42208;6.376;-10.782;2022-09-12T01:10:39;34.15;;;12.50;;
56297;SDS011;42208;6.376;-10.782;2022-09-12T01:13:08;26.38;;;11.10;;
56297;SDS011;42208;6.376;-10.782;2022-09-12T01:15:37;23.75;;;11.52;;
56297;SDS011;42208;6.376;-10.782;2022-09-12T01:20:41;32.33;;;12.70;;
56297;SDS011;42208;6.376;-10.782;2022-09-12T01:29:13;26.63;;;10.77;;
56297;SDS011;42208;6.376;-10.782;2022-09-12T01:35:15;26.60;;;11.05;;
56297;SDS011;42208;6.376;-10.782;2022-09-12T01:38:14;26.55;;;10.40;;
56297;SDS011;42208;6.376;-10.782;2022-09-12T01:43:45;26.30;;;11.07;;
56297;SDS011;42208;6.376;-10.782;2022-09-12T01:46:20;27.55;;;11.55;;
56297;SDS011;42208;6.376;-10.782;2022-09-12T01:49:40;20.77;;;10.40;;
56297;SDS011;42208;6.376;-10.782;2022-09-12T01:55:21;27.65;;;10.88;;
56297;SDS011;42208;6.376;-10.782;2022-09-12T02:00:30;22.13;;;11.63;;
56297;SDS011;42208;6.376;-10.782;2022-09-12T02:03:05;26.25;;;11.88;;
56297;SDS011;42208;6.376;-10.782;2022-09-12T02:05:48;27.88;;;12.07;;
56297;SDS011;42208;6.376;-10.782;2022-09-12T02:08:25;26.33;;;11.70;;
56297;SDS011;42208;6.376;-10.782;2022-09-12T02:11:20;25.08;;;12.07;;
56297;SDS011;42208;6.376;-10.782;2022-09-12T02:13:56;27.20;;;12.10;;
56297;SDS011;42208;6.376;-10.782;2022-09-12T02:16:34;35.30;;;12.75;;
56297;SDS011;42208;6.376;-10.782;2022-09-12T02:19:17;27.77;;;11.57;;
56297;SDS011;42208;6.376;-10.782;2022-09-12T02:21:58;29.83;;;11.88;;
56297;SDS011;42208;6.376;-10.782;2022-09-12T02:24:32;31.65;;;11.40;;
56297;SDS011;42208;6.376;-10.782;2022-09-12T02:27:07;32.92;;;13.80;;
56297;SDS011;42208;6.376;-10.782;2022-09-12T02:29:56;23.55;;;13.52;;
56297;SDS011;42208;6.376;-10.782;2022-09-12T02:35:21;32.47;;;13.25;;
56297;SDS011;42208;6.376;-10.782;2022-09-12T02:40:42;32.00;;;13.60;;
56297;SDS011;42208;6.376;-10.782;2022-09-12T02:43:10;32.17;;;12.27;;
56297;SDS011;42208;6.376;-10.782;2022-09-12T02:45:38;26.38;;;11.93;;
56297;SDS011;42208;6.376;-10.782;2022-09-12T02:50:39;25.05;;;11.23;;
56297;SDS011;42208;6.376;-10.782;2022-09-12T02:53:08;26.00;;;11.50;;
56297;SDS011;42208;6.376;-10.782;2022-09-12T02:55:38;23.08;;;11.43;;
56297;SDS011;42208;6.376;-10.782;2022-09-12T02:58:10;17.83;;;10.85;;
56297;SDS011;42208;6.376;-10.782;2022-09-12T03:00:50;24.20;;;10.93;;
56297;SDS011;42208;6.376;-10.782;2022-09-12T03:18:40;23.92;;;10.40;;
56297;SDS011;42208;6.376;-10.782;2022-09-12T03:21:30;20.85;;;10.50;;
56297;SDS011;42208;6.376;-10.782;2022-09-12T03:26:35;21.13;;;10.32;;
56297;SDS011;42208;6.376;-10.782;2022-09-12T03:29:34;24.92;;;10.20;;
56297;SDS011;42208;6.376;-10.782;2022-09-12T03:32:04;23.73;;;10.35;;
56297;SDS011;42208;6.376;-10.782;2022-09-12T03:34:32;27.02;;;11.43;;
56297;SDS011;42208;6.376;-10.782;2022-09-12T03:37:01;33.58;;;12.00;;
56297;SDS011;42208;6.376;-10.782;2022-09-12T03:39:29;30.70;;;11.68;;
56297;SDS011;42208;6.376;-10.782;2022-09-12T03:41:57;27.08;;;11.45;;
56297;SDS011;42208;6.376;-10.782;2022-09-12T03:44:25;23.77;;;11.45;;
56297;SDS011;42208;6.376;-10.782;2022-09-12T03:46:54;33.42;;;11.20;;
56297;SDS011;42208;6.376;-10.782;2022-09-12T03:49:22;27.02;;;11.48;;
56297;SDS011;42208;6.376;-10.782;2022-09-12T03:51:50;23.00;;;11.20;;
56297;SDS011;42208;6.376;-10.782;2022-09-12T03:54:18;36.47;;;12.07;;
56297;SDS011;42208;6.376;-10.782;2022-09-12T03:56:46;33.58;;;13.18;;
56297;SDS011;42208;6.376;-10.782;2022-09-12T03:59:15;23.65;;;12.35;;
56297;SDS011;42208;6.376;-10.782;2022-09-12T04:01:43;38.50;;;12.10;;
56297;SDS011;42208;6.376;-10.782;2022-09-12T04:04:11;27.55;;;11.55;;
56297;SDS011;42208;6.376;-10.782;2022-09-12T04:06:39;29.73;;;12.38;;
56297;SDS011;42208;6.376;-10.782;2022-09-12T04:09:07;22.45;;;11.52;;
56297;SDS011;42208;6.376;-10.782;2022-09-12T04:11:35;26.27;;;11.43;;
56297;SDS011;42208;6.376;-10.782;2022-09-12T04:14:03;22.48;;;11.80;;
56297;SDS011;42208;6.376;-10.782;2022-09-12T04:16:32;31.52;;;12.43;;
56297;SDS011;42208;6.376;-10.782;2022-09-12T04:19:00;27.80;;;11.18;;
56297;SDS011;42208;6.376;-10.782;2022-09-12T04:21:28;27.10;;;11.45;;
56297;SDS011;42208;6.376;-10.782;2022-09-12T04:23:56;23.73;;;11.38;;
56297;SDS011;42208;6.376;-10.782;2022-09-12T04:26:24;28.92;;;12.43;;
56297;SDS011;42208;6.376;-10.782;2022-09-12T04:28:53;26.48;;;13.43;;
56297;SDS011;42208;6.376;-10.782;2022-09-12T04:31:21;26.52;;;12.25;;
56297;SDS011;42208;6.376;-10.782;2022-09-12T04:33:56;36.85;;;19.20;;
56297;SDS011;42208;6.376;-10.782;2022-09-12T04:36:26;33.20;;;18.65;;
56297;SDS011;42208;6.376;-10.782;2022-09-12T04:38:55;27.98;;;16.20;;
56297;SDS011;42208;6.376;-10.782;2022-09-12T04:41:25;33.33;;;15.50;;
56297;SDS011;42208;6.376;-10.782;2022-09-12T04:43:56;27.73;;;12.80;;
56297;SDS011;42208;6.376;-10.782;2022-09-12T04:46:25;34.17;;;13.20;;
56297;SDS011;42208;6.376;-10.782;2022-09-12T04:48:54;30.73;;;12.68;;
56297;SDS011;42208;6.376;-10.782;2022-09-12T04:51:24;28.40;;;13.35;;
56297;SDS011;42208;6.376;-10.782;2022-09-12T04:54:04;29.92;;;12.93;;
56297;SDS011;42208;6.376;-10.782;2022-09-12T04:56:39;22.63;;;12.23;;
56297;SDS011;42208;6.376;-10.782;2022-09-12T04:59:09;22.55;;;11.93;;
56297;SDS011;42208;6.376;-10.782;2022-09-12T05:01:38;25.15;;;10.65;;
56297;SDS011;42208;6.376;-10.782;2022-09-12T05:04:08;24.83;;;10.63;;
56297;SDS011;42208;6.376;-10.782;2022-09-12T05:06:38;27.75;;;11.38;;
56297;SDS011;42208;6.376;-10.782;2022-09-12T05:09:07;27.67;;;13.68;;
56297;SDS011;42208;6.376;-10.782;2022-09-12T05:11:39;30.67;;;13.98;;
56297;SDS011;42208;6.376;-10.782;2022-09-12T05:14:28;32.50;;;13.43;;
56297;SDS011;42208;6.376;-10.782;2022-09-12T05:16:57;35.25;;;15.88;;
56297;SDS011;42208;6.376;-10.782;2022-09-12T05:19:26;33.22;;;15.30;;
56297;SDS011;42208;6.376;-10.782;2022-09-12T05:21:54;31.23;;;14.32;;
56297;SDS011;42208;6.376;-10.782;2022-09-12T05:24:23;33.22;;;14.45;;
56297;SDS011;42208;6.376;-10.782;2022-09-12T05:26:52;38.88;;;14.45;;
56297;SDS011;42208;6.376;-10.782;2022-09-12T05:29:20;26.45;;;12.32;;
56297;SDS011;42208;6.376;-10.782;2022-09-12T05:31:49;29.33;;;13.13;;
56297;SDS011;42208;6.376;-10.782;2022-09-12T05:34:17;27.83;;;12.05;;
56297;SDS011;42208;6.376;-10.782;2022-09-12T05:36:46;28.70;;;12.88;;
56297;SDS011;42208;6.376;-10.782;2022-09-12T05:39:14;24.75;;;13.48;;
56297;SDS011;42208;6.376;-10.782;2022-09-12T05:41:43;28.20;;;12.73;;
56297;SDS011;42208;6.376;-10.782;2022-09-12T05:44:11;25.45;;;11.45;;
56297;SDS011;42208;6.376;-10.782;2022-09-12T05:46:41;26.05;;;11.38;;
56297;SDS011;42208;6.376;-10.782;2022-09-12T05:49:11;27.10;;;10.80;;
56297;SDS011;42208;6.376;-10.782;2022-09-12T05:51:41;30.27;;;11.55;;
56297;SDS011;42208;6.376;-10.782;2022-09-12T05:54:11;26.38;;;12.98;;
56297;SDS011;42208;6.376;-10.782;2022-09-12T05:56:42;27.85;;;13.80;;
56297;SDS011;42208;6.376;-10.782;2022-09-12T05:59:11;29.70;;;12.68;;
56297;SDS011;42208;6.376;-10.782;2022-09-12T06:01:41;31.90;;;14.02;;
56297;SDS011;42208;6.376;-10.782;2022-09-12T06:04:10;29.35;;;13.05;;
56297;SDS011;42208;6.376;-10.782;2022-09-12T06:06:39;29.48;;;13.02;;
56297;SDS011;42208;6.376;-10.782;2022-09-12T06:09:09;27.98;;;15.23;;
56297;SDS011;42208;6.376;-10.782;2022-09-12T06:11:39;31.17;;;13.77;;
56297;SDS011;42208;6.376;-10.782;2022-09-12T06:14:08;27.75;;;14.82;;
56297;SDS011;42208;6.376;-10.782;2022-09-12T06:16:38;37.17;;;15.02;;
56297;SDS011;42208;6.376;-10.782;2022-09-12T06:19:10;33.92;;;14.95;;
56297;SDS011;42208;6.376;-10.782;2022-09-12T06:21:42;28.83;;;18.23;;
56297;SDS011;42208;6.376;-10.782;2022-09-12T06:24:11;36.97;;;17.27;;
56297;SDS011;42208;6.376;-10.782;2022-09-12T06:26:39;42.35;;;23.08;;
56297;SDS011;42208;6.376;-10.782;2022-09-12T06:29:08;57.80;;;31.95;;
56297;SDS011;42208;6.376;-10.782;2022-09-12T06:31:37;64.20;;;34.88;;
56297;SDS011;42208;6.376;-10.782;2022-09-12T06:34:07;56.08;;;30.77;;
56297;SDS011;42208;6.376;-10.782;2022-09-12T06:36:38;49.55;;;30.65;;
56297;SDS011;42208;6.376;-10.782;2022-09-12T06:39:18;75.55;;;44.85;;
56297;SDS011;42208;6.376;-10.782;2022-09-12T06:41:48;112.25;;;72.68;;
56297;SDS011;42208;6.376;-10.782;2022-09-12T06:44:31;107.20;;;70.15;;
56297;SDS011;42208;6.376;-10.782;2022-09-12T06:46:59;93.18;;;55.55;;
56297;SDS011;42208;6.376;-10.782;2022-09-12T06:49:27;69.25;;;40.05;;
56297;SDS011;42208;6.376;-10.782;2022-09-12T06:51:55;41.92;;;25.42;;
56297;SDS011;42208;6.376;-10.782;2022-09-12T06:54:24;84.65;;;49.88;;
56297;SDS011;42208;6.376;-10.782;2022-09-12T06:56:52;56.97;;;30.30;;
56297;SDS011;42208;6.376;-10.782;2022-09-12T06:59:20;45.17;;;23.27;;
56297;SDS011;42208;6.376;-10.782;2022-09-12T07:01:48;42.40;;;21.73;;
56297;SDS011;42208;6.376;-10.782;2022-09-12T07:04:16;38.83;;;19.27;;
56297;SDS011;42208;6.376;-10.782;2022-09-12T07:06:45;31.70;;;17.58;;
56297;SDS011;42208;6.376;-10.782;2022-09-12T07:09:13;34.72;;;17.05;;
56297;SDS011;42208;6.376;-10.782;2022-09-12T07:11:41;35.88;;;16.15;;
56297;SDS011;42208;6.376;-10.782;2022-09-12T07:14:11;40.00;;;18.42;;
56297;SDS011;42208;6.376;-10.782;2022-09-12T07:16:40;48.38;;;24.25;;
56297;SDS011;42208;6.376;-10.782;2022-09-12T07:19:10;39.30;;;23.48;;
56297;SDS011;42208;6.376;-10.782;2022-09-12T07:21:38;45.22;;;21.63;;
56297;SDS011;42208;6.376;-10.782;2022-09-12T07:24:07;46.03;;;21.38;;
56297;SDS011;42208;6.376;-10.782;2022-09-12T07:26:36;41.50;;;20.60;;
56297;SDS011;42208;6.376;-10.782;2022-09-12T07:29:06;36.78;;;20.23;;
56297;SDS011;42208;6.376;-10.782;2022-09-12T07:31:59;40.95;;;20.48;;
56297;SDS011;42208;6.376;-10.782;2022-09-12T07:34:27;32.00;;;18.92;;
56297;SDS011;42208;6.376;-10.782;2022-09-12T07:36:55;37.03;;;20.73;;
56297;SDS011;42208;6.376;-10.782;2022-09-12T07:39:24;30.90;;;18.10;;
56297;SDS011;42208;6.376;-10.782;2022-09-12T07:41:52;31.02;;;18.33;;
56297;SDS011;42208;6.376;-10.782;2022-09-12T07:44:20;32.10;;;18.30;;
56297;SDS011;42208;6.376;-10.782;2022-09-12T07:46:48;39.17;;;19.42;;
56297;SDS011;42208;6.376;-10.782;2022-09-12T07:49:17;28.70;;;17.02;;
56297;SDS011;42208;6.376;-10.782;2022-09-12T07:51:45;41.40;;;18.67;;
56297;SDS011;42208;6.376;-10.782;2022-09-12T07:54:13;33.72;;;15.85;;
56297;SDS011;42208;6.376;-10.782;2022-09-12T07:56:41;27.27;;;14.32;;
56297;SDS011;42208;6.376;-10.782;2022-09-12T07:59:10;45.33;;;12.68;;
56297;SDS011;42208;6.376;-10.782;2022-09-12T08:01:38;24.20;;;11.27;;
56297;SDS011;42208;6.376;-10.782;2022-09-12T08:04:06;32.05;;;12.93;;
56297;SDS011;42208;6.376;-10.782;2022-09-12T08:06:34;27.85;;;11.38;;
56297;SDS011;42208;6.376;-10.782;2022-09-12T08:09:03;24.83;;;11.23;;
56297;SDS011;42208;6.376;-10.782;2022-09-12T08:11:32;34.75;;;11.55;;
56297;SDS011;42208;6.376;-10.782;2022-09-12T08:14:01;24.45;;;10.55;;
56297;SDS011;42208;6.376;-10.782;2022-09-12T08:16:30;36.67;;;13.43;;
56297;SDS011;42208;6.376;-10.782;2022-09-12T08:18:59;35.40;;;12.07;;
56297;SDS011;42208;6.376;-10.782;2022-09-12T08:21:29;26.92;;;11.95;;
56297;SDS011;42208;6.376;-10.782;2022-09-12T08:24:00;28.30;;;12.65;;
56297;SDS011;42208;6.376;-10.782;2022-09-12T08:26:30;26.75;;;9.85;;
56297;SDS011;42208;6.376;-10.782;2022-09-12T08:29:00;20.35;;;9.23;;
56297;SDS011;42208;6.376;-10.782;2022-09-12T08:31:29;24.65;;;9.40;;
56297;SDS011;42208;6.376;-10.782;2022-09-12T08:33:57;20.52;;;9.77;;
56297;SDS011;42208;6.376;-10.782;2022-09-12T08:36:26;27.27;;;10.25;;
56297;SDS011;42208;6.376;-10.782;2022-09-12T08:38:59;21.70;;;9.60;;
56297;SDS011;42208;6.376;-10.782;2022-09-12T08:41:30;23.27;;;9.98;;
56297;SDS011;42208;6.376;-10.782;2022-09-12T08:52:39;31.27;;;11.77;;
56297;SDS011;42208;6.376;-10.782;2022-09-12T08:57:51;20.02;;;10.40;;
56297;SDS011;42208;6.376;-10.782;2022-09-12T09:00:20;25.63;;;10.35;;
56297;SDS011;42208;6.376;-10.782;2022-09-12T09:05:39;29.70;;;11.23;;
56297;SDS011;42208;6.376;-10.782;2022-09-12T09:16:23;26.25;;;10.45;;
56297;SDS011;42208;6.376;-10.782;2022-09-12T09:19:04;30.00;;;9.63;;
56297;SDS011;42208;6.376;-10.782;2022-09-12T09:21:50;23.15;;;9.38;;
56297;SDS011;42208;6.376;-10.782;2022-09-12T09:24:47;19.30;;;10.38;;
56297;SDS011;42208;6.376;-10.782;2022-09-12T09:30:13;24.88;;;10.02;;
56297;SDS011;42208;6.376;-10.782;2022-09-12T09:32:54;22.35;;;9.88;;
56297;SDS011;42208;6.376;-10.782;2022-09-12T09:35:33;24.80;;;10.25;;
56297;SDS011;42208;6.376;-10.782;2022-09-12T09:43:34;29.75;;;10.57;;
56297;SDS011;42208;6.376;-10.782;2022-09-12T09:46:04;19.13;;;9.05;;
56297;SDS011;42208;6.376;-10.782;2022-09-12T09:48:36;24.00;;;10.68;;
56297;SDS011;42208;6.376;-10.782;2022-09-12T09:51:08;25.42;;;8.68;;
56297;SDS011;42208;6.376;-10.782;2022-09-12T09:53:42;25.45;;;8.77;;
56297;SDS011;42208;6.376;-10.782;2022-09-12T09:56:33;21.70;;;7.85;;
56297;SDS011;42208;6.376;-10.782;2022-09-12T09:59:19;30.48;;;9.27;;
56297;SDS011;42208;6.376;-10.782;2022-09-12T10:01:57;18.65;;;8.60;;
56297;SDS011;42208;6.376;-10.782;2022-09-12T10:04:53;23.13;;;8.07;;
56297;SDS011;42208;6.376;-10.782;2022-09-12T10:07:24;21.77;;;7.75;;
56297;SDS011;42208;6.376;-10.782;2022-09-12T10:10:13;23.35;;;9.60;;
56297;SDS011;42208;6.376;-10.782;2022-09-12T10:12:45;26.35;;;8.65;;
56297;SDS011;42208;6.376;-10.782;2022-09-12T10:17:48;23.60;;;8.23;;
56297;SDS011;42208;6.376;-10.782;2022-09-12T10:25:59;21.45;;;8.98;;
56297;SDS011;42208;6.376;-10.782;2022-09-12T10:29:03;20.00;;;8.13;;
56297;SDS011;42208;6.376;-10.782;2022-09-12T10:31:25;26.40;;;8.25;;
56297;SDS011;42208;6.376;-10.782;2022-09-12T10:34:03;30.92;;;8.82;;
56297;SDS011;42208;6.376;-10.782;2022-09-12T10:36:35;25.02;;;7.80;;
56297;SDS011;42208;6.376;-10.782;2022-09-12T10:39:04;29.38;;;8.63;;
56297;SDS011;42208;6.376;-10.782;2022-09-12T10:41:36;16.70;;;9.07;;
56297;SDS011;42208;6.376;-10.782;2022-09-12T10:44:11;18.75;;;8.48;;
56297;SDS011;42208;6.376;-10.782;2022-09-12T10:46:49;26.00;;;9.10;;
56297;SDS011;42208;6.376;-10.782;2022-09-12T10:49:29;24.35;;;8.88;;
56297;SDS011;42208;6.376;-10.782;2022-09-12T10:54:51;25.60;;;7.80;;
56297;SDS011;42208;6.376;-10.782;2022-09-12T11:00:12;17.15;;;7.93;;
56297;SDS011;42208;6.376;-10.782;2022-09-12T11:02:47;19.77;;;9.40;;
56297;SDS011;42208;6.376;-10.782;2022-09-12T11:16:44;26.05;;;7.82;;
56297;SDS011;42208;6.376;-10.782;2022-09-12T11:19:38;30.25;;;9.18;;
56297;SDS011;42208;6.376;-10.782;2022-09-12T11:27:55;24.00;;;9.43;;
56297;SDS011;42208;6.376;-10.782;2022-09-12T11:30:42;19.90;;;8.93;;
56297;SDS011;42208;6.376;-10.782;2022-09-12T11:36:08;29.45;;;8.57;;
56297;SDS011;42208;6.376;-10.782;2022-09-12T11:39:18;24.08;;;10.05;;
56297;SDS011;42208;6.376;-10.782;2022-09-12T11:41:46;33.67;;;13.40;;
56297;SDS011;42208;6.376;-10.782;2022-09-12T11:44:24;26.05;;;8.88;;
56297;SDS011;42208;6.376;-10.782;2022-09-12T11:47:06;27.35;;;9.20;;
56297;SDS011;42208;6.376;-10.782;2022-09-12T11:49:46;31.95;;;8.75;;
56297;SDS011;42208;6.376;-10.782;2022-09-12T11:52:22;25.95;;;8.05;;
56297;SDS011;42208;6.376;-10.782;2022-09-12T11:55:11;25.85;;;7.93;;
56297;SDS011;42208;6.376;-10.782;2022-09-12T12:00:32;26.37;;;10.23;;
56297;SDS011;42208;6.376;-10.782;2022-09-12T12:08:41;22.40;;;7.80;;
56297;SDS011;42208;6.376;-10.782;2022-09-12T12:11:12;17.40;;;6.95;;
56297;SDS011;42208;6.376;-10.782;2022-09-12T12:13:47;24.52;;;8.38;;
56297;SDS011;42208;6.376;-10.782;2022-09-12T12:16:25;30.70;;;8.65;;
56297;SDS011;42208;6.376;-10.782;2022-09-12T12:18:59;23.67;;;7.38;;
56297;SDS011;42208;6.376;-10.782;2022-09-12T12:21:49;22.33;;;7.78;;
56297;SDS011;42208;6.376;-10.782;2022-09-12T12:24:19;21.75;;;7.15;;
56297;SDS011;42208;6.376;-10.782;2022-09-12T12:26:53;28.65;;;7.60;;
56297;SDS011;42208;6.376;-10.782;2022-09-12T12:34:38;28.48;;;7.53;;
56297;SDS011;42208;6.376;-10.782;2022-09-12T12:45:02;24.88;;;9.95;;
56297;SDS011;42208;6.376;-10.782;2022-09-12T12:47:50;37.47;;;8.98;;
56297;SDS011;42208;6.376;-10.782;2022-09-12T12:50:36;27.40;;;9.55;;
56297;SDS011;42208;6.376;-10.782;2022-09-12T12:53:15;20.63;;;9.27;;
56297;SDS011;42208;6.376;-10.782;2022-09-12T12:55:48;27.83;;;7.80;;
56297;SDS011;42208;6.376;-10.782;2022-09-12T12:58:35;20.17;;;7.63;;
56297;SDS011;42208;6.376;-10.782;2022-09-12T13:03:46;24.85;;;7.68;;
56297;SDS011;42208;6.376;-10.782;2022-09-12T13:06:38;43.30;;;10.85;;
56297;SDS011;42208;6.376;-10.782;2022-09-12T13:12:43;51.63;;;36.58;;
56297;SDS011;42208;6.376;-10.782;2022-09-12T13:18:04;28.08;;;8.25;;
56297;SDS011;42208;6.376;-10.782;2022-09-12T13:20:46;47.00;;;11.45;;
56297;SDS011;42208;6.376;-10.782;2022-09-12T13:23:29;19.58;;;7.93;;
56297;SDS011;42208;6.376;-10.782;2022-09-12T13:25:59;21.08;;;8.02;;
56297;SDS011;42208;6.376;-10.782;2022-09-12T13:28:29;23.25;;;7.13;;
56297;SDS011;42208;6.376;-10.782;2022-09-12T13:30:58;26.17;;;6.85;;
56297;SDS011;42208;6.376;-10.782;2022-09-12T13:33:35;19.58;;;8.55;;
56297;SDS011;42208;6.376;-10.782;2022-09-12T13:36:06;21.85;;;6.88;;
56297;SDS011;42208;6.376;-10.782;2022-09-12T13:39:19;41.00;;;12.18;;
56297;SDS011;42208;6.376;-10.782;2022-09-12T13:44:52;18.75;;;7.28;;
56297;SDS011;42208;6.376;-10.782;2022-09-12T13:47:37;23.98;;;8.90;;
56297;SDS011;42208;6.376;-10.782;2022-09-12T13:50:15;26.02;;;7.47;;
56297;SDS011;42208;6.376;-10.782;2022-09-12T13:53:05;17.30;;;6.68;;
56297;SDS011;42208;6.376;-10.782;2022-09-12T13:55:41;21.55;;;7.45;;
56297;SDS011;42208;6.376;-10.782;2022-09-12T13:58:24;27.90;;;8.63;;
56297;SDS011;42208;6.376;-10.782;2022-09-12T14:03:32;30.63;;;10.15;;
56297;SDS011;42208;6.376;-10.782;2022-09-12T14:06:06;27.13;;;8.35;;
56297;SDS011;42208;6.376;-10.782;2022-09-12T14:08:37;17.73;;;6.43;;
56297;SDS011;42208;6.376;-10.782;2022-09-12T14:11:07;20.63;;;8.00;;
56297;SDS011;42208;6.376;-10.782;2022-09-12T14:13:38;19.38;;;7.35;;
56297;SDS011;42208;6.376;-10.782;2022-09-12T14:16:08;68.65;;;14.57;;
56297;SDS011;42208;6.376;-10.782;2022-09-12T14:18:37;30.65;;;8.80;;
56297;SDS011;42208;6.376;-10.782;2022-09-12T14:21:09;29.73;;;10.43;;
56297;SDS011;42208;6.376;-10.782;2022-09-12T14:23:39;30.42;;;8.63;;
56297;SDS011;42208;6.376;-10.782;2022-09-12T14:26:10;24.58;;;7.45;;
56297;SDS011;42208;6.376;-10.782;2022-09-12T14:28:40;30.38;;;9.18;;
56297;SDS011;42208;6.376;-10.782;2022-09-12T14:33:46;30.27;;;9.00;;
56297;SDS011;42208;6.376;-10.782;2022-09-12T14:36:39;31.23;;;14.18;;
56297;SDS011;42208;6.376;-10.782;2022-09-12T14:42:10;24.55;;;8.85;;
56297;SDS011;42208;6.376;-10.782;2022-09-12T14:44:49;23.67;;;8.05;;
56297;SDS011;42208;6.376;-10.782;2022-09-12T14:47:33;26.67;;;9.93;;
56297;SDS011;42208;6.376;-10.782;2022-09-12T14:50:16;33.53;;;8.68;;
56297;SDS011;42208;6.376;-10.782;2022-09-12T14:55:48;31.50;;;9.98;;
56297;SDS011;42208;6.376;-10.782;2022-09-12T14:58:26;45.83;;;9.98;;
56297;SDS011;42208;6.376;-10.782;2022-09-12T15:00:55;44.65;;;10.00;;
56297;SDS011;42208;6.376;-10.782;2022-09-12T15:06:04;33.67;;;9.35;;
56297;SDS011;42208;6.376;-10.782;2022-09-12T15:08:33;46.42;;;10.00;;
56297;SDS011;42208;6.376;-10.782;2022-09-12T15:11:01;24.48;;;8.10;;
56297;SDS011;42208;6.376;-10.782;2022-09-12T15:13:38;15.30;;;6.53;;
56297;SDS011;42208;6.376;-10.782;2022-09-12T15:16:08;45.08;;;9.55;;
56297;SDS011;42208;6.376;-10.782;2022-09-12T15:18:38;32.03;;;7.25;;
56297;SDS011;42208;6.376;-10.782;2022-09-12T15:21:06;32.97;;;8.35;;
56297;SDS011;42208;6.376;-10.782;2022-09-12T15:26:12;23.75;;;7.57;;
56297;SDS011;42208;6.376;-10.782;2022-09-12T15:28:43;25.55;;;7.22;;
56297;SDS011;42208;6.376;-10.782;2022-09-12T15:31:17;35.38;;;9.07;;
56297;SDS011;42208;6.376;-10.782;2022-09-12T15:33:58;15.43;;;7.30;;
56297;SDS011;42208;6.376;-10.782;2022-09-12T15:36:27;46.70;;;11.18;;
56297;SDS011;42208;6.376;-10.782;2022-09-12T15:38:56;23.98;;;8.52;;
56297;SDS011;42208;6.376;-10.782;2022-09-12T15:41:34;22.55;;;7.32;;
56297;SDS011;42208;6.376;-10.782;2022-09-12T15:44:05;46.35;;;19.02;;
56297;SDS011;42208;6.376;-10.782;2022-09-12T15:46:37;61.50;;;22.85;;
56297;SDS011;42208;6.376;-10.782;2022-09-12T15:49:05;79.55;;;31.95;;
56297;SDS011;42208;6.376;-10.782;2022-09-12T15:51:34;29.13;;;11.35;;
56297;SDS011;42208;6.376;-10.782;2022-09-12T15:54:02;22.67;;;6.78;;
56297;SDS011;42208;6.376;-10.782;2022-09-12T15:56:31;68.57;;;31.48;;
56297;SDS011;42208;6.376;-10.782;2022-09-12T15:58:59;28.02;;;9.50;;
56297;SDS011;42208;6.376;-10.782;2022-09-12T16:01:28;26.98;;;6.95;;
56297;SDS011;42208;6.376;-10.782;2022-09-12T16:03:56;20.55;;;8.07;;
56297;SDS011;42208;6.376;-10.782;2022-09-12T16:06:25;33.65;;;9.70;;
56297;SDS011;42208;6.376;-10.782;2022-09-12T16:08:53;26.52;;;8.93;;
56297;SDS011;42208;6.376;-10.782;2022-09-12T16:11:22;18.38;;;6.50;;
56297;SDS011;42208;6.376;-10.782;2022-09-12T16:13:52;27.48;;;8.38;;
56297;SDS011;42208;6.376;-10.782;2022-09-12T16:16:22;19.40;;;8.07;;
56297;SDS011;42208;6.376;-10.782;2022-09-12T16:18:50;50.50;;;8.27;;
56297;SDS011;42208;6.376;-10.782;2022-09-12T16:21:18;21.23;;;7.57;;
56297;SDS011;42208;6.376;-10.782;2022-09-12T16:23:47;34.42;;;8.13;;
56297;SDS011;42208;6.376;-10.782;2022-09-12T16:26:16;49.45;;;9.60;;
56297;SDS011;42208;6.376;-10.782;2022-09-12T16:28:44;48.80;;;12.05;;
56297;SDS011;42208;6.376;-10.782;2022-09-12T16:31:13;36.03;;;9.13;;
56297;SDS011;42208;6.376;-10.782;2022-09-12T16:33:41;55.17;;;10.70;;
56297;SDS011;42208;6.376;-10.782;2022-09-12T16:36:10;31.55;;;8.98;;
56297;SDS011;42208;6.376;-10.782;2022-09-12T16:38:41;23.83;;;8.35;;
56297;SDS011;42208;6.376;-10.782;2022-09-12T16:41:15;31.23;;;8.32;;
56297;SDS011;42208;6.376;-10.782;2022-09-12T16:43:44;36.28;;;9.60;;
56297;SDS011;42208;6.376;-10.782;2022-09-12T16:46:14;26.98;;;7.63;;
56297;SDS011;42208;6.376;-10.782;2022-09-12T16:48:51;21.77;;;6.43;;
56297;SDS011;42208;6.376;-10.782;2022-09-12T16:51:24;23.48;;;7.22;;
56297;SDS011;42208;6.376;-10.782;2022-09-12T16:53:54;36.53;;;7.82;;
56297;SDS011;42208;6.376;-10.782;2022-09-12T16:56:23;33.15;;;7.97;;
56297;SDS011;42208;6.376;-10.782;2022-09-12T16:58:51;23.75;;;6.55;;
56297;SDS011;42208;6.376;-10.782;2022-09-12T17:01:23;22.67;;;6.10;;
56297;SDS011;42208;6.376;-10.782;2022-09-12T17:03:53;24.40;;;6.15;;
56297;SDS011;42208;6.376;-10.782;2022-09-12T17:06:23;35.25;;;7.32;;
56297;SDS011;42208;6.376;-10.782;2022-09-12T17:08:53;21.23;;;6.30;;
56297;SDS011;42208;6.376;-10.782;2022-09-12T17:11:27;34.30;;;7.15;;
56297;SDS011;42208;6.376;-10.782;2022-09-12T17:14:01;23.77;;;5.82;;
56297;SDS011;42208;6.376;-10.782;2022-09-12T17:16:33;28.80;;;8.30;;
56297;SDS011;42208;6.376;-10.782;2022-09-12T17:19:04;31.95;;;8.35;;
56297;SDS011;42208;6.376;-10.782;2022-09-12T17:21:34;27.48;;;10.07;;
56297;SDS011;42208;6.376;-10.782;2022-09-12T17:24:02;24.20;;;6.47;;
56297;SDS011;42208;6.376;-10.782;2022-09-12T17:26:30;38.13;;;7.45;;
56297;SDS011;42208;6.376;-10.782;2022-09-12T17:28:59;51.38;;;9.13;;
56297;SDS011;42208;6.376;-10.782;2022-09-12T17:31:28;34.50;;;12.07;;
56297;SDS011;42208;6.376;-10.782;2022-09-12T17:33:56;27.77;;;10.85;;
56297;SDS011;42208;6.376;-10.782;2022-09-12T17:36:26;25.55;;;8.00;;